Sykesville, Pennsylvania
Current Conditions -  °F | °C
As of 8:53 AM on Saturday 25 Oct 2014 (Local Time) from KDUJ Reporting Station
Broken Clouds Broken Clouds  
Wind Chill: 41°   Ceiling: 4000
Heat Index: 46°   Visibility: 10mi
Dew Point: 40°   Wind: 10mph
Humidity: 79%   Direction: 240°WSW
Pressure: 29.91"   Gusts: NA
Location:  41.05°N, 78.82°W
Report Text: KDUJ 251253Z AUTO 24009KT 10SM BKN040 08/04 A2991 RMK AO2 SLP132 T00780044 $
Loading
Personal Weather Stations






























Interactive Weather Map
Tropical Storm Tracking
New forecast layout! Learn more

10-Day Weather Forecast

Advertisements
Track Severe Weather on mobile